Annandale, Pennsylvania
Current Conditions -  °F | °C
As of 1:55 PM on Thursday 23 Oct 2014 (Local Time) from KFKL Reporting Station
Few Clouds Few Clouds  
Wind Chill: 57°   Ceiling: Unl
Heat Index: 57°   Visibility: 10mi
Dew Point: 37°   Wind: 5mph
Humidity: 48%   Direction: 310°NW
Pressure: 30.09"   Gusts: NA
Location:  41.1142°N, 79.9031°W
Report Text: KFKL 231755Z 31004KT 10SM FEW043 14/03 A3009 RMK AO1 10140 20070 57014
Loading
Personal Weather Stations






























Interactive Weather Map
Tropical Storm Tracking
New forecast layout! Learn more

10-Day Weather Forecast

Advertisements
Track Severe Weather on mobile